sensor_id;sensor_type;location;lat;lon;timestamp;pressure;altitude;pressure_sealevel;temperature;humidity
74675;BME280;63200;48.810;12.352;2023-09-07T00:01:44;97870.88;;;12.13;100.00
74675;BME280;63200;48.810;12.352;2023-09-07T00:04:09;97877.13;;;12.14;100.00
74675;BME280;63200;48.810;12.352;2023-09-07T00:06:35;97877.94;;;12.14;100.00
74675;BME280;63200;48.810;12.352;2023-09-07T00:09:02;97895.81;;;12.26;100.00
74675;BME280;63200;48.810;12.352;2023-09-07T00:11:27;97898.53;;;12.26;100.00
74675;BME280;63200;48.810;12.352;2023-09-07T00:13:53;97899.91;;;12.23;100.00
74675;BME280;63200;48.810;12.352;2023-09-07T00:16:18;97873.59;;;12.13;100.00
74675;BME280;63200;48.810;12.352;2023-09-07T00:18:43;97875.78;;;12.11;100.00
74675;BME280;63200;48.810;12.352;2023-09-07T00:21:09;97891.00;;;12.12;100.00
74675;BME280;63200;48.810;12.352;2023-09-07T00:23:34;97895.47;;;11.98;100.00
74675;BME280;63200;48.810;12.352;2023-09-07T00:25:59;97886.84;;;11.86;100.00
74675;BME280;63200;48.810;12.352;2023-09-07T00:28:25;97888.19;;;11.88;100.00
74675;BME280;63200;48.810;12.352;2023-09-07T00:30:50;97862.94;;;11.77;100.00
74675;BME280;63200;48.810;12.352;2023-09-07T00:33:15;97879.78;;;11.79;100.00
74675;BME280;63200;48.810;12.352;2023-09-07T00:35:41;97880.28;;;11.87;100.00
74675;BME280;63200;48.810;12.352;2023-09-07T00:38:07;97894.13;;;11.90;100.00
74675;BME280;63200;48.810;12.352;2023-09-07T00:40:32;97894.97;;;11.91;100.00
74675;BME280;63200;48.810;12.352;2023-09-07T00:42:58;97886.84;;;11.86;100.00
74675;BME280;63200;48.810;12.352;2023-09-07T00:45:24;97859.78;;;11.60;100.00
74675;BME280;63200;48.810;12.352;2023-09-07T00:47:49;97884.84;;;11.52;100.00
74675;BME280;63200;48.810;12.352;2023-09-07T00:50:15;97866.72;;;11.42;100.00
74675;BME280;63200;48.810;12.352;2023-09-07T00:52:46;97887.84;;;11.55;100.00
74675;BME280;63200;48.810;12.352;2023-09-07T00:55:12;97878.31;;;11.58;100.00
74675;BME280;63200;48.810;12.352;2023-09-07T00:57:38;97875.00;;;11.61;100.00
74675;BME280;63200;48.810;12.352;2023-09-07T01:00:05;97869.34;;;11.52;100.00
74675;BME280;63200;48.810;12.352;2023-09-07T01:02:31;97880.16;;;11.62;100.00
74675;BME280;63200;48.810;12.352;2023-09-07T01:04:57;97876.69;;;11.57;100.00
74675;BME280;63200;48.810;12.352;2023-09-07T01:07:32;97861.00;;;11.38;100.00
74675;BME280;63200;48.810;12.352;2023-09-07T01:10:01;97870.97;;;11.53;100.00
74675;BME280;63200;48.810;12.352;2023-09-07T01:12:27;97871.00;;;11.48;100.00
74675;BME280;63200;48.810;12.352;2023-09-07T01:14:53;97862.06;;;11.47;100.00
74675;BME280;63200;48.810;12.352;2023-09-07T01:17:19;97850.66;;;11.40;100.00
74675;BME280;63200;48.810;12.352;2023-09-07T01:19:48;97862.88;;;11.43;100.00
74675;BME280;63200;48.810;12.352;2023-09-07T01:22:16;97846.66;;;11.32;100.00
74675;BME280;63200;48.810;12.352;2023-09-07T01:24:44;97861.28;;;11.37;100.00
74675;BME280;63200;48.810;12.352;2023-09-07T01:27:11;97832.34;;;11.11;100.00
74675;BME280;63200;48.810;12.352;2023-09-07T01:29:38;97863.28;;;11.21;100.00
74675;BME280;63200;48.810;12.352;2023-09-07T01:32:04;97843.25;;;11.01;100.00
74675;BME280;63200;48.810;12.352;2023-09-07T01:34:30;97848.69;;;10.96;100.00
74675;BME280;63200;48.810;12.352;2023-09-07T01:36:55;97834.59;;;10.89;100.00
74675;BME280;63200;48.810;12.352;2023-09-07T01:39:20;97851.41;;;10.96;100.00
74675;BME280;63200;48.810;12.352;2023-09-07T01:41:46;97845.22;;;10.90;100.00
74675;BME280;63200;48.810;12.352;2023-09-07T01:44:11;97864.72;;;11.03;100.00
74675;BME280;63200;48.810;12.352;2023-09-07T01:46:36;97860.63;;;11.00;100.00
74675;BME280;63200;48.810;12.352;2023-09-07T01:49:02;97867.16;;;10.94;100.00
74675;BME280;63200;48.810;12.352;2023-09-07T01:51:27;97846.31;;;10.84;100.00
74675;BME280;63200;48.810;12.352;2023-09-07T01:53:53;97860.94;;;10.88;100.00
74675;BME280;63200;48.810;12.352;2023-09-07T01:56:18;97860.66;;;10.90;100.00
74675;BME280;63200;48.810;12.352;2023-09-07T01:58:44;97856.38;;;10.83;100.00
74675;BME280;63200;48.810;12.352;2023-09-07T02:01:26;97861.25;;;10.76;100.00
74675;BME280;63200;48.810;12.352;2023-09-07T02:03:52;97861.28;;;10.66;100.00
74675;BME280;63200;48.810;12.352;2023-09-07T02:06:18;97855.06;;;10.50;100.00
74675;BME280;63200;48.810;12.352;2023-09-07T02:08:43;97868.38;;;10.52;100.00
74675;BME280;63200;48.810;12.352;2023-09-07T02:11:09;97861.59;;;10.54;100.00
74675;BME280;63200;48.810;12.352;2023-09-07T02:13:34;97864.84;;;10.56;100.00
74675;BME280;63200;48.810;12.352;2023-09-07T02:16:04;97866.47;;;10.57;100.00
74675;BME280;63200;48.810;12.352;2023-09-07T02:18:30;97860.78;;;10.54;100.00
74675;BME280;63200;48.810;12.352;2023-09-07T02:21:03;97875.44;;;10.53;100.00
74675;BME280;63200;48.810;12.352;2023-09-07T02:23:32;97877.63;;;10.50;100.00
74675;BME280;63200;48.810;12.352;2023-09-07T02:25:57;97867.84;;;10.49;100.00
74675;BME280;63200;48.810;12.352;2023-09-07T02:28:24;97871.66;;;10.48;100.00
74675;BME280;63200;48.810;12.352;2023-09-07T02:30:49;97864.84;;;10.46;100.00
74675;BME280;63200;48.810;12.352;2023-09-07T02:33:14;97874.38;;;10.43;100.00
74675;BME280;63200;48.810;12.352;2023-09-07T02:35:39;97852.94;;;10.42;100.00
74675;BME280;63200;48.810;12.352;2023-09-07T02:38:05;97853.47;;;10.39;100.00
74675;BME280;63200;48.810;12.352;2023-09-07T02:40:30;97851.03;;;10.37;100.00
74675;BME280;63200;48.810;12.352;2023-09-07T02:42:56;97865.69;;;10.41;100.00
74675;BME280;63200;48.810;12.352;2023-09-07T02:45:21;97870.56;;;10.39;100.00
74675;BME280;63200;48.810;12.352;2023-09-07T02:47:46;97855.09;;;10.29;100.00
74675;BME280;63200;48.810;12.352;2023-09-07T02:50:14;97868.13;;;10.38;100.00
74675;BME280;63200;48.810;12.352;2023-09-07T02:52:41;97847.75;;;10.25;100.00
74675;BME280;63200;48.810;12.352;2023-09-07T02:55:06;97850.75;;;10.23;100.00
74675;BME280;63200;48.810;12.352;2023-09-07T02:57:32;97870.53;;;10.29;100.00
74675;BME280;63200;48.810;12.352;2023-09-07T02:59:57;97861.88;;;10.16;100.00
74675;BME280;63200;48.810;12.352;2023-09-07T03:02:22;97861.59;;;10.08;100.00
74675;BME280;63200;48.810;12.352;2023-09-07T03:04:53;97862.44;;;10.03;100.00
74675;BME280;63200;48.810;12.352;2023-09-07T03:07:18;97852.13;;;9.95;100.00
74675;BME280;63200;48.810;12.352;2023-09-07T03:09:43;97854.84;;;9.95;100.00
74675;BME280;63200;48.810;12.352;2023-09-07T03:12:09;97849.13;;;9.91;100.00
74675;BME280;63200;48.810;12.352;2023-09-07T03:14:35;97861.34;;;9.94;100.00
74675;BME280;63200;48.810;12.352;2023-09-07T03:17:00;97868.94;;;9.97;100.00
74675;BME280;63200;48.810;12.352;2023-09-07T03:19:26;97885.22;;;9.97;100.00
74675;BME280;63200;48.810;12.352;2023-09-07T03:21:51;97873.81;;;9.90;100.00
74675;BME280;63200;48.810;12.352;2023-09-07T03:24:17;97880.06;;;9.95;100.00
74675;BME280;63200;48.810;12.352;2023-09-07T03:26:42;97856.72;;;9.79;100.00
74675;BME280;63200;48.810;12.352;2023-09-07T03:29:08;97873.81;;;10.00;100.00
74675;BME280;63200;48.810;12.352;2023-09-07T03:31:34;97874.09;;;9.98;100.00
74675;BME280;63200;48.810;12.352;2023-09-07T03:34:00;97855.09;;;9.88;100.00
74675;BME280;63200;48.810;12.352;2023-09-07T03:36:26;97858.06;;;9.87;100.00
74675;BME280;63200;48.810;12.352;2023-09-07T03:38:51;97844.53;;;9.71;100.00
74675;BME280;63200;48.810;12.352;2023-09-07T03:41:16;97870.28;;;9.84;100.00
74675;BME280;63200;48.810;12.352;2023-09-07T03:43:42;97847.50;;;9.64;100.00
74675;BME280;63200;48.810;12.352;2023-09-07T03:46:07;97876.81;;;9.83;100.00
74675;BME280;63200;48.810;12.352;2023-09-07T03:48:32;97862.16;;;9.89;100.00
74675;BME280;63200;48.810;12.352;2023-09-07T03:50:58;97877.88;;;10.03;100.00
74675;BME280;63200;48.810;12.352;2023-09-07T03:53:23;97837.47;;;9.96;100.00
74675;BME280;63200;48.810;12.352;2023-09-07T03:55:48;97870.53;;;10.24;100.00
74675;BME280;63200;48.810;12.352;2023-09-07T03:58:14;97884.94;;;10.29;100.00
74675;BME280;63200;48.810;12.352;2023-09-07T04:00:40;97872.47;;;10.33;100.00
74675;BME280;63200;48.810;12.352;2023-09-07T04:03:08;97855.09;;;10.24;100.00
74675;BME280;63200;48.810;12.352;2023-09-07T04:05:33;97865.94;;;10.24;100.00
74675;BME280;63200;48.810;12.352;2023-09-07T04:08:01;97876.81;;;10.24;100.00
74675;BME280;63200;48.810;12.352;2023-09-07T04:10:28;97873.00;;;10.10;100.00
74675;BME280;63200;48.810;12.352;2023-09-07T04:12:53;97871.94;;;10.00;100.00
74675;BME280;63200;48.810;12.352;2023-09-07T04:15:18;97869.19;;;9.85;100.00
74675;BME280;63200;48.810;12.352;2023-09-07T04:17:43;97859.69;;;9.72;100.00
74675;BME280;63200;48.810;12.352;2023-09-07T04:20:09;97875.97;;;9.77;100.00
74675;BME280;63200;48.810;12.352;2023-09-07T04:22:37;97868.34;;;9.64;100.00
74675;BME280;63200;48.810;12.352;2023-09-07T04:25:03;97876.50;;;9.64;100.00
74675;BME280;63200;48.810;12.352;2023-09-07T04:27:28;97853.16;;;9.47;100.00
74675;BME280;63200;48.810;12.352;2023-09-07T04:29:54;97856.16;;;9.56;100.00
74675;BME280;63200;48.810;12.352;2023-09-07T04:32:19;97864.56;;;9.60;100.00
74675;BME280;63200;48.810;12.352;2023-09-07T04:34:44;97854.78;;;9.54;100.00
74675;BME280;63200;48.810;12.352;2023-09-07T04:37:11;97854.53;;;9.55;100.00
74675;BME280;63200;48.810;12.352;2023-09-07T04:39:36;97864.56;;;9.60;100.00
74675;BME280;63200;48.810;12.352;2023-09-07T04:42:02;97861.31;;;9.53;100.00
74675;BME280;63200;48.810;12.352;2023-09-07T04:44:27;97876.47;;;9.54;100.00
74675;BME280;63200;48.810;12.352;2023-09-07T04:46:55;97883.81;;;9.63;100.00
74675;BME280;63200;48.810;12.352;2023-09-07T04:49:20;97874.84;;;9.58;100.00
74675;BME280;63200;48.810;12.352;2023-09-07T04:51:46;97880.56;;;9.61;100.00
74675;BME280;63200;48.810;12.352;2023-09-07T04:54:11;97893.59;;;9.64;100.00
74675;BME280;63200;48.810;12.352;2023-09-07T04:56:37;97871.03;;;9.54;100.00
74675;BME280;63200;48.810;12.352;2023-09-07T04:59:03;97886.25;;;9.65;100.00
74675;BME280;63200;48.810;12.352;2023-09-07T05:01:28;97878.66;;;9.57;100.00
74675;BME280;63200;48.810;12.352;2023-09-07T05:03:53;97889.50;;;9.62;100.00
74675;BME280;63200;48.810;12.352;2023-09-07T05:06:20;97892.22;;;9.62;100.00
74675;BME280;63200;48.810;12.352;2023-09-07T05:08:47;97891.69;;;9.65;100.00
74675;BME280;63200;48.810;12.352;2023-09-07T05:11:13;97877.56;;;9.58;100.00
74675;BME280;63200;48.810;12.352;2023-09-07T05:13:38;97875.41;;;9.60;100.00
74675;BME280;63200;48.810;12.352;2023-09-07T05:16:03;97885.19;;;9.66;100.00
74675;BME280;63200;48.810;12.352;2023-09-07T05:18:30;97864.00;;;9.63;100.00
74675;BME280;63200;48.810;12.352;2023-09-07T05:20:55;97887.63;;;9.88;100.00
74675;BME280;63200;48.810;12.352;2023-09-07T05:23:22;97907.44;;;10.09;100.00
74675;BME280;63200;48.810;12.352;2023-09-07T05:25:52;97889.56;;;10.13;100.00
74675;BME280;63200;48.810;12.352;2023-09-07T05:28:19;97908.81;;;10.32;100.00
74675;BME280;63200;48.810;12.352;2023-09-07T05:30:44;97881.97;;;10.36;100.00
74675;BME280;63200;48.810;12.352;2023-09-07T05:33:11;97898.50;;;10.55;100.00
74675;BME280;63200;48.810;12.352;2023-09-07T05:35:36;97894.97;;;10.65;100.00
74675;BME280;63200;48.810;12.352;2023-09-07T05:38:03;97912.84;;;10.92;100.00
74675;BME280;63200;48.810;12.352;2023-09-07T05:40:29;97902.50;;;10.94;100.00
74675;BME280;63200;48.810;12.352;2023-09-07T05:42:54;97904.09;;;11.10;100.00
74675;BME280;63200;48.810;12.352;2023-09-07T05:45:20;97908.63;;;11.25;100.00
74675;BME280;63200;48.810;12.352;2023-09-07T05:47:45;97908.31;;;11.37;100.00
74675;BME280;63200;48.810;12.352;2023-09-07T05:50:11;97919.41;;;11.51;100.00
74675;BME280;63200;48.810;12.352;2023-09-07T05:52:36;97924.44;;;11.73;100.00
74675;BME280;63200;48.810;12.352;2023-09-07T05:55:01;97912.16;;;11.81;100.00
74675;BME280;63200;48.810;12.352;2023-09-07T05:57:27;97913.44;;;11.94;100.00
74675;BME280;63200;48.810;12.352;2023-09-07T05:59:52;97927.16;;;12.18;100.00
74675;BME280;63200;48.810;12.352;2023-09-07T06:02:18;97918.19;;;12.52;100.00
74675;BME280;63200;48.810;12.352;2023-09-07T06:04:43;97923.97;;;13.23;100.00
74675;BME280;63200;48.810;12.352;2023-09-07T06:07:08;97926.22;;;14.03;100.00
74675;BME280;63200;48.810;12.352;2023-09-07T06:09:34;97939.56;;;14.23;100.00
74675;BME280;63200;48.810;12.352;2023-09-07T06:12:02;97933.72;;;14.30;100.00
74675;BME280;63200;48.810;12.352;2023-09-07T06:14:28;97914.78;;;14.99;100.00
74675;BME280;63200;48.810;12.352;2023-09-07T06:16:53;97922.22;;;15.91;100.00
74675;BME280;63200;48.810;12.352;2023-09-07T06:19:18;97942.00;;;16.25;100.00
74675;BME280;63200;48.810;12.352;2023-09-07T06:21:43;97934.47;;;15.94;100.00
74675;BME280;63200;48.810;12.352;2023-09-07T06:24:09;97939.41;;;15.55;100.00
74675;BME280;63200;48.810;12.352;2023-09-07T06:26:34;97934.84;;;15.37;100.00
74675;BME280;63200;48.810;12.352;2023-09-07T06:28:59;97947.09;;;15.39;100.00
74675;BME280;63200;48.810;12.352;2023-09-07T06:31:25;97951.06;;;15.47;100.00
74675;BME280;63200;48.810;12.352;2023-09-07T06:33:50;97938.56;;;15.82;100.00
74675;BME280;63200;48.810;12.352;2023-09-07T06:36:15;97937.41;;;16.34;100.00
74675;BME280;63200;48.810;12.352;2023-09-07T06:38:41;97933.72;;;17.24;100.00
74675;BME280;63200;48.810;12.352;2023-09-07T06:41:06;97948.16;;;18.14;99.10
74675;BME280;63200;48.810;12.352;2023-09-07T06:43:33;97950.53;;;18.68;93.62
74675;BME280;63200;48.810;12.352;2023-09-07T06:46:05;97944.00;;;19.38;86.33
74675;BME280;63200;48.810;12.352;2023-09-07T06:48:31;97951.47;;;20.39;78.02
74675;BME280;63200;48.810;12.352;2023-09-07T06:51:01;97950.34;;;21.20;71.94
74675;BME280;63200;48.810;12.352;2023-09-07T06:53:28;97937.03;;;21.71;68.05
74675;BME280;63200;48.810;12.352;2023-09-07T06:56:00;97953.88;;;22.19;64.55
74675;BME280;63200;48.810;12.352;2023-09-07T06:58:26;97946.31;;;22.44;63.04
74675;BME280;63200;48.810;12.352;2023-09-07T07:00:52;97947.03;;;22.86;61.65
74675;BME280;63200;48.810;12.352;2023-09-07T07:03:17;97957.22;;;23.26;60.24
74675;BME280;63200;48.810;12.352;2023-09-07T07:05:42;97949.34;;;23.44;59.25
74675;BME280;63200;48.810;12.352;2023-09-07T07:08:09;97949.22;;;23.72;57.53
74675;BME280;63200;48.810;12.352;2023-09-07T07:10:34;97944.38;;;23.69;57.71
74675;BME280;63200;48.810;12.352;2023-09-07T07:13:00;97954.84;;;23.92;56.17
74675;BME280;63200;48.810;12.352;2023-09-07T07:15:25;97938.03;;;23.85;55.66
74675;BME280;63200;48.810;12.352;2023-09-07T07:17:50;97953.97;;;23.72;55.84
74675;BME280;63200;48.810;12.352;2023-09-07T07:20:16;97939.41;;;23.27;55.63
74675;BME280;63200;48.810;12.352;2023-09-07T07:22:41;97953.97;;;23.08;56.72
74675;BME280;63200;48.810;12.352;2023-09-07T07:25:07;97951.78;;;22.85;57.90
74675;BME280;63200;48.810;12.352;2023-09-07T07:27:32;97956.94;;;23.15;58.45
74675;BME280;63200;48.810;12.352;2023-09-07T07:29:57;97955.50;;;23.37;58.14
74675;BME280;63200;48.810;12.352;2023-09-07T07:32:23;97959.28;;;23.45;58.41
74675;BME280;63200;48.810;12.352;2023-09-07T07:34:48;97958.81;;;23.43;58.66
74675;BME280;63200;48.810;12.352;2023-09-07T07:37:14;97951.31;;;23.43;58.35
74675;BME280;63200;48.810;12.352;2023-09-07T07:39:39;97965.69;;;23.65;58.73
74675;BME280;63200;48.810;12.352;2023-09-07T07:42:05;97963.13;;;23.56;59.11
74675;BME280;63200;48.810;12.352;2023-09-07T07:44:31;97953.00;;;23.48;60.11
74675;BME280;63200;48.810;12.352;2023-09-07T07:46:56;97955.16;;;23.23;58.57
74675;BME280;63200;48.810;12.352;2023-09-07T07:49:22;97960.97;;;23.34;58.01
74675;BME280;63200;48.810;12.352;2023-09-07T07:51:47;97947.72;;;23.27;58.03
74675;BME280;63200;48.810;12.352;2023-09-07T07:54:12;97960.16;;;23.17;55.09
74675;BME280;63200;48.810;12.352;2023-09-07T07:56:40;97959.13;;;22.93;55.35
74675;BME280;63200;48.810;12.352;2023-09-07T07:59:06;97949.56;;;22.91;55.93
74675;BME280;63200;48.810;12.352;2023-09-07T08:01:31;97954.25;;;23.19;56.34
74675;BME280;63200;48.810;12.352;2023-09-07T08:03:57;97953.25;;;23.43;55.18
74675;BME280;63200;48.810;12.352;2023-09-07T08:06:22;97945.41;;;23.61;54.56
74675;BME280;63200;48.810;12.352;2023-09-07T08:08:48;97943.97;;;23.67;54.38
74675;BME280;63200;48.810;12.352;2023-09-07T08:11:13;97956.50;;;24.12;55.06
74675;BME280;63200;48.810;12.352;2023-09-07T08:13:39;97947.16;;;24.40;53.42
74675;BME280;63200;48.810;12.352;2023-09-07T08:16:06;97955.31;;;24.53;51.40
74675;BME280;63200;48.810;12.352;2023-09-07T08:18:33;97956.38;;;24.64;52.00
74675;BME280;63200;48.810;12.352;2023-09-07T08:20:59;97960.84;;;24.69;51.56
74675;BME280;63200;48.810;12.352;2023-09-07T08:23:25;97955.03;;;24.97;52.03
74675;BME280;63200;48.810;12.352;2023-09-07T08:25:51;97952.19;;;25.17;49.40
74675;BME280;63200;48.810;12.352;2023-09-07T08:28:17;97925.94;;;24.91;49.11
74675;BME280;63200;48.810;12.352;2023-09-07T08:30:44;97949.53;;;25.24;50.36
74675;BME280;63200;48.810;12.352;2023-09-07T08:33:09;97949.94;;;25.46;47.29
74675;BME280;63200;48.810;12.352;2023-09-07T08:35:34;97953.91;;;25.25;47.94
74675;BME280;63200;48.810;12.352;2023-09-07T08:38:03;97953.81;;;25.41;46.40
74675;BME280;63200;48.810;12.352;2023-09-07T08:40:33;97946.03;;;25.77;46.65
74675;BME280;63200;48.810;12.352;2023-09-07T08:43:03;97935.56;;;25.93;46.06
74675;BME280;63200;48.810;12.352;2023-09-07T08:45:29;97945.69;;;26.36;45.62
74675;BME280;63200;48.810;12.352;2023-09-07T08:47:56;97943.56;;;26.59;45.85
74675;BME280;63200;48.810;12.352;2023-09-07T08:50:22;97942.03;;;26.66;43.87
74675;BME280;63200;48.810;12.352;2023-09-07T08:52:51;97942.19;;;26.42;44.06
74675;BME280;63200;48.810;12.352;2023-09-07T08:55:17;97935.72;;;26.35;43.49
74675;BME280;63200;48.810;12.352;2023-09-07T08:57:42;97946.53;;;26.40;43.82
74675;BME280;63200;48.810;12.352;2023-09-07T09:00:08;97954.00;;;26.70;43.95
74675;BME280;63200;48.810;12.352;2023-09-07T09:02:38;97952.00;;;27.01;42.55
74675;BME280;63200;48.810;12.352;2023-09-07T09:05:05;97947.66;;;27.03;43.21
74675;BME280;63200;48.810;12.352;2023-09-07T09:07:31;97936.91;;;27.05;42.50
74675;BME280;63200;48.810;12.352;2023-09-07T09:10:06;97940.47;;;27.02;42.29
74675;BME280;63200;48.810;12.352;2023-09-07T09:12:31;97946.38;;;26.97;42.55
74675;BME280;63200;48.810;12.352;2023-09-07T09:14:56;97943.47;;;27.27;42.14
74675;BME280;63200;48.810;12.352;2023-09-07T09:17:24;97947.03;;;27.24;42.53
74675;BME280;63200;48.810;12.352;2023-09-07T09:19:49;97944.19;;;27.58;43.99
74675;BME280;63200;48.810;12.352;2023-09-07T09:22:15;97945.75;;;27.59;41.65
74675;BME280;63200;48.810;12.352;2023-09-07T09:24:40;97943.91;;;27.33;41.00
74675;BME280;63200;48.810;12.352;2023-09-07T09:27:05;97962.38;;;27.41;43.19
74675;BME280;63200;48.810;12.352;2023-09-07T09:29:35;97955.66;;;27.08;41.55
74675;BME280;63200;48.810;12.352;2023-09-07T09:32:04;97959.41;;;27.27;42.82
74675;BME280;63200;48.810;12.352;2023-09-07T09:34:37;97959.56;;;27.45;42.24
74675;BME280;63200;48.810;12.352;2023-09-07T09:37:03;97953.78;;;27.68;41.99
74675;BME280;63200;48.810;12.352;2023-09-07T09:39:29;97952.91;;;27.57;43.01
74675;BME280;63200;48.810;12.352;2023-09-07T09:41:55;97944.06;;;27.44;41.71
74675;BME280;63200;48.810;12.352;2023-09-07T09:44:22;97951.16;;;27.38;42.44
74675;BME280;63200;48.810;12.352;2023-09-07T09:46:52;97940.16;;;27.56;43.11
74675;BME280;63200;48.810;12.352;2023-09-07T09:49:20;97935.91;;;27.76;42.62
74675;BME280;63200;48.810;12.352;2023-09-07T09:51:46;97938.75;;;27.87;41.72
74675;BME280;63200;48.810;12.352;2023-09-07T09:54:12;97928.72;;;27.72;39.93
74675;BME280;63200;48.810;12.352;2023-09-07T09:56:38;97927.94;;;27.75;40.06
74675;BME280;63200;48.810;12.352;2023-09-07T09:59:04;97939.72;;;28.09;40.23
74675;BME280;63200;48.810;12.352;2023-09-07T10:01:29;97861.16;;;27.41;39.39
74675;BME280;63200;48.810;12.352;2023-09-07T10:03:56;97944.88;;;28.04;39.02
74675;BME280;63200;48.810;12.352;2023-09-07T10:06:28;97939.00;;;28.20;39.01
74675;BME280;63200;48.810;12.352;2023-09-07T10:09:01;97937.31;;;28.04;37.23
74675;BME280;63200;48.810;12.352;2023-09-07T10:11:34;97931.53;;;27.79;37.75
74675;BME280;63200;48.810;12.352;2023-09-07T10:14:03;97928.44;;;27.95;39.28
74675;BME280;63200;48.810;12.352;2023-09-07T10:16:41;97909.31;;;27.93;38.85
74675;BME280;63200;48.810;12.352;2023-09-07T10:21:41;97929.88;;;28.34;38.46
74675;BME280;63200;48.810;12.352;2023-09-07T10:24:06;97919.19;;;28.61;39.91
74675;BME280;63200;48.810;12.352;2023-09-07T10:26:31;97930.47;;;28.97;36.72
74675;BME280;63200;48.810;12.352;2023-09-07T10:29:00;97927.28;;;28.84;37.60
74675;BME280;63200;48.810;12.352;2023-09-07T10:31:28;97921.72;;;29.06;38.56
74675;BME280;63200;48.810;12.352;2023-09-07T10:33:56;97926.16;;;29.32;37.40
74675;BME280;63200;48.810;12.352;2023-09-07T10:36:23;97936.16;;;29.44;38.82
74675;BME280;63200;48.810;12.352;2023-09-07T10:38:50;97932.50;;;29.87;39.45
74675;BME280;63200;48.810;12.352;2023-09-07T10:41:19;97930.47;;;30.02;37.68
74675;BME280;63200;48.810;12.352;2023-09-07T10:43:53;97915.31;;;29.74;37.19
74675;BME280;63200;48.810;12.352;2023-09-07T10:46:20;97916.50;;;29.98;36.45
74675;BME280;63200;48.810;12.352;2023-09-07T10:48:49;97914.00;;;30.25;37.60
74675;BME280;63200;48.810;12.352;2023-09-07T10:51:15;97913.25;;;30.11;36.85
74675;BME280;63200;48.810;12.352;2023-09-07T10:53:41;97859.75;;;29.87;35.80
74675;BME280;63200;48.810;12.352;2023-09-07T10:56:07;97906.41;;;30.22;37.23
74675;BME280;63200;48.810;12.352;2023-09-07T10:58:34;97913.50;;;30.56;37.26
74675;BME280;63200;48.810;12.352;2023-09-07T11:01:01;97913.88;;;30.62;36.37
74675;BME280;63200;48.810;12.352;2023-09-07T11:03:27;97911.53;;;30.42;36.32
74675;BME280;63200;48.810;12.352;2023-09-07T11:05:55;97898.63;;;30.66;37.30
74675;BME280;63200;48.810;12.352;2023-09-07T11:08:23;97909.31;;;30.86;37.27
74675;BME280;63200;48.810;12.352;2023-09-07T11:10:50;97890.97;;;30.74;36.21
74675;BME280;63200;48.810;12.352;2023-09-07T11:13:17;97889.53;;;30.40;34.66
74675;BME280;63200;48.810;12.352;2023-09-07T11:15:42;97892.31;;;30.48;34.87
74675;BME280;63200;48.810;12.352;2023-09-07T11:18:08;97891.84;;;30.64;36.74
74675;BME280;63200;48.810;12.352;2023-09-07T11:20:36;97892.50;;;30.89;36.63
74675;BME280;63200;48.810;12.352;2023-09-07T11:23:02;97889.13;;;31.13;35.48
74675;BME280;63200;48.810;12.352;2023-09-07T11:25:34;97887.31;;;30.84;34.04
74675;BME280;63200;48.810;12.352;2023-09-07T11:27:59;97895.22;;;31.04;36.02
74675;BME280;63200;48.810;12.352;2023-09-07T11:30:25;97901.94;;;31.14;36.52
74675;BME280;63200;48.810;12.352;2023-09-07T11:32:50;97894.38;;;31.07;34.65
74675;BME280;63200;48.810;12.352;2023-09-07T11:35:15;97886.59;;;31.29;36.98
74675;BME280;63200;48.810;12.352;2023-09-07T11:37:41;97870.97;;;31.73;35.11
74675;BME280;63200;48.810;12.352;2023-09-07T11:40:08;97883.47;;;31.20;33.39
74675;BME280;63200;48.810;12.352;2023-09-07T11:42:40;97880.34;;;31.03;34.24
74675;BME280;63200;48.810;12.352;2023-09-07T11:45:06;97878.75;;;31.06;34.41
74675;BME280;63200;48.810;12.352;2023-09-07T11:47:32;97867.72;;;31.37;33.16
74675;BME280;63200;48.810;12.352;2023-09-07T11:49:59;97861.91;;;31.10;34.08
74675;BME280;63200;48.810;12.352;2023-09-07T11:52:25;97857.75;;;30.76;33.81
74675;BME280;63200;48.810;12.352;2023-09-07T11:54:50;97875.19;;;31.05;33.70
74675;BME280;63200;48.810;12.352;2023-09-07T11:57:15;97865.19;;;30.97;33.55
74675;BME280;63200;48.810;12.352;2023-09-07T11:59:41;97867.91;;;31.12;34.23
74675;BME280;63200;48.810;12.352;2023-09-07T12:02:06;97865.22;;;30.94;34.84
74675;BME280;63200;48.810;12.352;2023-09-07T12:04:32;97852.84;;;31.40;35.92
74675;BME280;63200;48.810;12.352;2023-09-07T12:06:58;97866.75;;;32.27;35.59
74675;BME280;63200;48.810;12.352;2023-09-07T12:09:23;97870.31;;;32.31;34.00
74675;BME280;63200;48.810;12.352;2023-09-07T12:11:49;97870.38;;;31.89;33.95
74675;BME280;63200;48.810;12.352;2023-09-07T12:14:14;97863.53;;;31.94;33.42
74675;BME280;63200;48.810;12.352;2023-09-07T12:16:39;97856.41;;;31.86;33.96
74675;BME280;63200;48.810;12.352;2023-09-07T12:19:05;97846.25;;;31.61;33.25
74675;BME280;63200;48.810;12.352;2023-09-07T12:21:30;97859.13;;;31.51;34.12
74675;BME280;63200;48.810;12.352;2023-09-07T12:23:56;97845.41;;;31.64;34.49
74675;BME280;63200;48.810;12.352;2023-09-07T12:26:21;97866.06;;;31.81;34.38
74675;BME280;63200;48.810;12.352;2023-09-07T12:28:47;97856.34;;;31.89;33.31
74675;BME280;63200;48.810;12.352;2023-09-07T12:31:13;97860.06;;;31.37;33.61
74675;BME280;63200;48.810;12.352;2023-09-07T12:33:39;97852.19;;;31.21;35.12
74675;BME280;63200;48.810;12.352;2023-09-07T12:36:05;97851.31;;;31.73;34.67
74675;BME280;63200;48.810;12.352;2023-09-07T12:38:34;97856.84;;;31.81;35.58
74675;BME280;63200;48.810;12.352;2023-09-07T12:40:59;97849.84;;;31.96;34.05
74675;BME280;63200;48.810;12.352;2023-09-07T12:43:25;97841.25;;;31.76;34.49